createdAt,value
2022-09-06T00:01:23.755Z,3.55
2022-09-06T00:03:51.041Z,4.32
2022-09-06T00:06:21.633Z,3.67
2022-09-06T00:08:48.757Z,8.52
2022-09-06T00:11:16.867Z,2.38
2022-09-06T00:13:43.992Z,2.53
2022-09-06T00:16:14.974Z,3.05
2022-09-06T00:18:42.422Z,5.10
2022-09-06T00:21:21.496Z,3.78
2022-09-06T00:23:48.312Z,2.58
2022-09-06T00:26:15.532Z,3.58
2022-09-06T00:28:42.277Z,3.60
2022-09-06T00:31:14.670Z,3.75
2022-09-06T00:33:41.623Z,6.53
2022-09-06T00:36:10.878Z,3.00
2022-09-06T00:38:37.994Z,5.32
2022-09-06T00:41:05.871Z,5.55
2022-09-06T00:43:33.066Z,3.03
2022-09-06T00:46:00.186Z,6.63
2022-09-06T00:48:27.133Z,2.40
2022-09-06T00:50:56.727Z,2.38
2022-09-06T00:53:23.707Z,2.60
2022-09-06T00:55:50.375Z,3.08
2022-09-06T00:58:17.247Z,4.20
2022-09-06T01:00:45.042Z,3.17
2022-09-06T01:03:12.282Z,2.90
2022-09-06T01:06:01.462Z,2.30
2022-09-06T01:08:59.670Z,3.65
2022-09-06T01:11:41.626Z,3.67
2022-09-06T01:14:41.097Z,2.30
2022-09-06T01:17:21.516Z,3.95
2022-09-06T01:20:10.309Z,3.05
2022-09-06T01:22:45.938Z,3.85
2022-09-06T01:25:30.824Z,3.08
2022-09-06T01:28:19.188Z,2.43
2022-09-06T01:30:58.238Z,3.83
2022-09-06T01:33:43.750Z,2.63
2022-09-06T01:36:15.026Z,3.70
2022-09-06T01:38:41.784Z,3.40
2022-09-06T01:41:09.260Z,2.85
2022-09-06T01:43:39.678Z,5.38
2022-09-06T01:46:31.391Z,2.53
2022-09-06T01:49:24.584Z,3.00
2022-09-06T01:52:01.446Z,3.17
2022-09-06T01:54:40.378Z,3.17
2022-09-06T01:57:10.088Z,2.38
2022-09-06T01:59:55.549Z,3.38
2022-09-06T02:02:42.444Z,2.47
2022-09-06T02:05:11.630Z,4.60
2022-09-06T02:07:38.896Z,2.90
2022-09-06T02:10:16.581Z,3.38
2022-09-06T02:12:45.290Z,3.42
2022-09-06T02:15:19.177Z,1.98
2022-09-06T02:17:52.601Z,1.90
2022-09-06T02:20:21.405Z,2.92
2022-09-06T02:22:48.459Z,3.47
2022-09-06T02:25:25.419Z,4.80
2022-09-06T02:27:52.187Z,2.28
2022-09-06T02:30:18.944Z,3.13
2022-09-06T02:32:53.921Z,4.53
2022-09-06T02:35:20.633Z,2.63
2022-09-06T02:37:47.323Z,6.65
2022-09-06T02:40:14.329Z,3.45
2022-09-06T02:42:41.954Z,3.50
2022-09-06T02:45:09.031Z,3.45
2022-09-06T02:47:35.754Z,5.15
2022-09-06T02:50:02.526Z,6.00
2022-09-06T02:52:29.241Z,4.50
2022-09-06T02:54:55.851Z,2.97
2022-09-06T02:57:23.196Z,3.67
2022-09-06T02:59:49.869Z,8.13
2022-09-06T03:02:17.143Z,5.65
2022-09-06T03:04:43.881Z,5.15
2022-09-06T03:07:10.591Z,4.75
2022-09-06T03:09:37.242Z,5.60
2022-09-06T03:12:04.014Z,6.38
2022-09-06T03:14:30.711Z,5.60
2022-09-06T03:16:57.511Z,5.88
2022-09-06T03:19:24.269Z,5.68
2022-09-06T03:21:50.910Z,6.35
2022-09-06T03:24:17.547Z,4.45
2022-09-06T03:26:44.551Z,6.25
2022-09-06T03:29:11.200Z,8.15
2022-09-06T03:31:37.857Z,5.65
2022-09-06T03:34:07.984Z,6.50
2022-09-06T03:36:37.030Z,7.32
2022-09-06T03:39:03.795Z,7.50
2022-09-06T03:41:30.515Z,5.38
2022-09-06T03:43:57.281Z,6.13
2022-09-06T03:46:24.101Z,6.88
2022-09-06T03:48:50.764Z,8.95
2022-09-06T03:51:17.528Z,3.35
2022-09-06T03:53:44.391Z,8.65
2022-09-06T03:56:11.066Z,7.15
2022-09-06T03:58:37.808Z,8.80
2022-09-06T04:01:09.933Z,8.77
2022-09-06T04:03:37.332Z,7.15
2022-09-06T04:06:04.925Z,12.40
2022-09-06T04:08:32.071Z,6.63
2022-09-06T04:10:59.508Z,7.85
2022-09-06T04:13:27.372Z,7.68
2022-09-06T04:15:54.040Z,6.40
2022-09-06T04:18:21.500Z,7.43
2022-09-06T04:20:49.535Z,9.57
2022-09-06T04:23:16.541Z,8.90
2022-09-06T04:25:47.830Z,7.95
2022-09-06T04:28:15.021Z,6.97
2022-09-06T04:30:42.083Z,11.48
2022-09-06T04:33:08.804Z,7.65
2022-09-06T04:35:35.649Z,10.82
2022-09-06T04:38:03.308Z,7.63
2022-09-06T04:40:29.973Z,8.10
2022-09-06T04:42:56.651Z,7.30
2022-09-06T04:45:23.352Z,6.93
2022-09-06T04:47:51.690Z,8.38
2022-09-06T04:50:18.436Z,8.40
2022-09-06T04:52:45.185Z,8.90
2022-09-06T04:55:11.844Z,14.68
2022-09-06T04:57:42.525Z,8.98
2022-09-06T05:00:12.152Z,10.40
2022-09-06T05:02:38.863Z,10.25
2022-09-06T05:05:05.945Z,9.35
2022-09-06T05:07:32.621Z,10.70
2022-09-06T05:09:59.313Z,9.77
2022-09-06T05:12:26.091Z,10.40
2022-09-06T05:14:52.791Z,14.32
2022-09-06T05:17:19.427Z,6.60
2022-09-06T05:19:46.073Z,10.80
2022-09-06T05:22:12.770Z,7.85
2022-09-06T05:24:39.564Z,7.65
2022-09-06T05:27:07.589Z,9.00
2022-09-06T05:29:34.355Z,9.30
2022-09-06T05:32:01.039Z,6.60
2022-09-06T05:34:27.754Z,6.57
2022-09-06T05:36:54.373Z,8.60
2022-09-06T05:39:22.038Z,9.80
2022-09-06T05:41:48.744Z,10.48
2022-09-06T05:44:15.431Z,6.70
2022-09-06T05:46:46.268Z,9.27
2022-09-06T05:49:13.650Z,12.00
2022-09-06T05:51:40.945Z,7.47
2022-09-06T05:54:08.065Z,11.20
2022-09-06T05:56:34.851Z,7.15
2022-09-06T05:59:01.626Z,7.15
2022-09-06T06:01:30.284Z,8.80
2022-09-06T06:03:59.006Z,10.68
2022-09-06T06:06:27.105Z,9.30
2022-09-06T06:08:53.866Z,11.35
2022-09-06T06:11:20.909Z,6.65
2022-09-06T06:13:49.419Z,7.10
2022-09-06T06:16:17.367Z,9.63
2022-09-06T06:18:47.629Z,8.07
2022-09-06T06:21:21.678Z,6.00
2022-09-06T06:23:51.767Z,5.13
2022-09-06T06:26:18.422Z,5.70
2022-09-06T06:28:45.176Z,7.40
2022-09-06T06:31:12.439Z,6.22
2022-09-06T06:33:39.809Z,4.85
2022-09-06T06:36:12.478Z,5.65
2022-09-06T06:38:41.182Z,4.47
2022-09-06T06:41:10.180Z,4.95
2022-09-06T06:43:37.971Z,7.93
2022-09-06T06:46:10.844Z,3.08
2022-09-06T06:48:40.695Z,4.30
2022-09-06T06:51:08.331Z,4.80
2022-09-06T06:53:35.540Z,3.95
2022-09-06T06:56:02.671Z,2.97
2022-09-06T06:58:31.186Z,4.10
2022-09-06T07:00:58.006Z,4.00
2022-09-06T07:03:24.678Z,3.35
2022-09-06T07:08:38.324Z,4.97
2022-09-06T07:11:10.098Z,4.32
2022-09-06T07:13:37.184Z,1.75
2022-09-06T07:16:12.552Z,5.20
2022-09-06T07:18:42.459Z,4.38
2022-09-06T07:24:06.585Z,4.03
2022-09-06T07:26:34.039Z,4.35
2022-09-06T07:29:02.458Z,4.43
2022-09-06T07:34:18.023Z,6.07
2022-09-06T07:36:44.882Z,7.07
2022-09-06T07:39:11.571Z,5.75
2022-09-06T07:41:38.222Z,4.00
2022-09-06T07:44:04.877Z,6.22
2022-09-06T07:46:31.748Z,5.25
2022-09-06T07:48:58.469Z,5.03
2022-09-06T07:51:25.090Z,3.83
2022-09-06T07:54:12.724Z,4.85
2022-09-06T07:56:42.110Z,8.18
2022-09-06T07:59:09.398Z,3.47
2022-09-06T08:01:40.077Z,6.25
2022-09-06T08:04:07.624Z,7.63
2022-09-06T08:09:23.318Z,7.18
2022-09-06T08:11:51.183Z,4.40
2022-09-06T08:14:17.818Z,7.72
2022-09-06T08:16:44.524Z,3.70
2022-09-06T08:19:12.522Z,6.22
2022-09-06T08:21:39.611Z,3.45
2022-09-06T08:24:08.273Z,1.92
2022-09-06T08:26:36.526Z,4.38
2022-09-06T08:29:06.882Z,6.38
2022-09-06T08:31:34.511Z,5.18
2022-09-06T08:34:01.711Z,3.42
2022-09-06T08:36:31.714Z,5.85
2022-09-06T08:39:00.083Z,5.00
2022-09-06T08:42:14.380Z,3.67
2022-09-06T08:47:21.743Z,5.72
2022-09-06T08:49:55.568Z,5.25
2022-09-06T08:53:06.069Z,8.25
2022-09-06T08:55:40.754Z,13.98
2022-09-06T08:58:21.207Z,3.88
2022-09-06T09:00:58.818Z,3.15
2022-09-06T09:03:33.375Z,2.60
2022-09-06T09:06:01.710Z,5.90
2022-09-06T09:08:56.945Z,5.13
2022-09-06T09:11:25.684Z,4.28
2022-09-06T09:13:59.391Z,3.30
2022-09-06T09:16:26.573Z,4.22
2022-09-06T09:18:56.485Z,4.25
2022-09-06T09:21:29.606Z,3.50
2022-09-06T09:23:59.450Z,3.75
2022-09-06T09:26:28.903Z,3.15
2022-09-06T09:29:13.166Z,4.82
2022-09-06T09:31:42.531Z,2.60
2022-09-06T09:34:14.368Z,7.15
2022-09-06T09:36:41.281Z,3.72
2022-09-06T09:39:11.672Z,5.00
2022-09-06T09:41:41.466Z,5.45
2022-09-06T09:44:17.814Z,6.75
2022-09-06T09:46:44.940Z,8.10
2022-09-06T09:49:14.116Z,8.25
2022-09-06T09:51:42.243Z,6.90
2022-09-06T09:54:14.201Z,7.28
2022-09-06T09:56:47.621Z,7.53
2022-09-06T09:59:23.363Z,8.07
2022-09-06T10:01:50.281Z,7.15
2022-09-06T10:07:23.879Z,9.88
2022-09-06T10:10:11.660Z,12.27
2022-09-06T10:12:40.020Z,16.85
2022-09-06T10:15:11.887Z,18.40
2022-09-06T10:17:49.058Z,15.82
2022-09-06T10:20:16.564Z,16.52
2022-09-06T10:23:05.172Z,16.92
2022-09-06T10:25:49.761Z,15.35
2022-09-06T10:28:29.691Z,14.43
2022-09-06T10:31:07.965Z,21.85
2022-09-06T10:33:41.109Z,18.88
2022-09-06T10:36:08.278Z,23.80
2022-09-06T10:38:42.385Z,29.85
2022-09-06T10:41:11.987Z,25.13
2022-09-06T10:43:48.451Z,33.30
2022-09-06T10:46:16.336Z,29.13
2022-09-06T10:48:45.873Z,30.80
2022-09-06T10:51:45.788Z,30.75
2022-09-06T10:54:14.007Z,35.78
2022-09-06T10:56:47.751Z,46.20
2022-09-06T11:02:38.206Z,35.88
2022-09-06T11:10:50.015Z,48.35
2022-09-06T11:13:18.502Z,60.83
2022-09-06T11:16:00.129Z,53.45
2022-09-06T11:19:00.501Z,55.70
2022-09-06T11:21:54.299Z,63.90
2022-09-06T11:24:45.986Z,73.10
2022-09-06T11:27:30.694Z,76.75
2022-09-06T11:29:58.102Z,59.73
2022-09-06T11:32:40.484Z,61.78
2022-09-06T11:35:10.252Z,70.93
2022-09-06T11:37:44.730Z,77.32
2022-09-06T11:40:29.945Z,124.90
2022-09-06T11:42:59.437Z,119.93
2022-09-06T11:45:50.174Z,123.95
2022-09-06T11:48:34.482Z,125.97
2022-09-06T11:51:06.835Z,138.13
2022-09-06T11:53:48.886Z,137.43
2022-09-06T11:56:41.367Z,146.50
2022-09-06T11:59:18.717Z,142.75
2022-09-06T12:02:01.889Z,90.93
2022-09-06T12:05:01.371Z,117.03
2022-09-06T12:07:30.039Z,93.25
2022-09-06T12:09:57.061Z,96.03
2022-09-06T12:12:45.836Z,98.53
2022-09-06T12:15:30.224Z,101.20
2022-09-06T12:17:58.409Z,98.72
2022-09-06T12:20:53.087Z,112.63
2022-09-06T12:23:34.910Z,106.68
2022-09-06T12:26:03.456Z,111.03
2022-09-06T12:28:53.757Z,111.30
2022-09-06T12:31:27.573Z,104.35
2022-09-06T12:33:55.264Z,109.50
2022-09-06T12:36:31.132Z,103.05
2022-09-06T12:39:09.254Z,91.68
2022-09-06T12:41:44.289Z,95.18
2022-09-06T12:44:11.945Z,85.57
2022-09-06T12:46:43.695Z,83.43
2022-09-06T12:49:11.928Z,84.70
2022-09-06T12:51:40.347Z,78.65
2022-09-06T12:54:21.058Z,58.80
2022-09-06T12:56:47.810Z,62.25
2022-09-06T12:59:25.290Z,69.50
2022-09-06T13:02:01.059Z,66.55
2022-09-06T13:04:36.698Z,53.28
2022-09-06T13:07:05.081Z,55.03
2022-09-06T13:09:31.957Z,52.75
2022-09-06T13:12:07.471Z,58.05
2022-09-06T13:14:34.953Z,54.78
2022-09-06T13:17:02.123Z,44.92
2022-09-06T13:19:31.581Z,38.42
2022-09-06T13:21:59.018Z,42.15
2022-09-06T13:24:35.442Z,50.03
2022-09-06T13:27:25.604Z,38.17
2022-09-06T13:30:03.761Z,37.08
2022-09-06T13:32:30.615Z,46.13
2022-09-06T13:34:58.793Z,44.47
2022-09-06T13:37:28.073Z,49.58
2022-09-06T13:39:55.237Z,59.25
2022-09-06T13:42:27.567Z,58.55
2022-09-06T13:45:01.263Z,55.97
2022-09-06T13:47:29.827Z,53.47
2022-09-06T13:49:56.559Z,52.05
2022-09-06T13:52:23.601Z,47.47
2022-09-06T13:54:50.299Z,48.00
2022-09-06T13:57:20.002Z,50.97
2022-09-06T13:59:50.286Z,53.13
2022-09-06T14:02:19.478Z,52.42
2022-09-06T14:04:46.320Z,49.65
2022-09-06T14:07:13.169Z,47.53
2022-09-06T14:09:39.859Z,36.60
2022-09-06T14:12:30.783Z,38.35
2022-09-06T14:14:57.498Z,36.78
2022-09-06T14:17:24.135Z,37.15
2022-09-06T14:19:51.086Z,31.38
2022-09-06T14:22:17.784Z,25.17
2022-09-06T14:24:44.444Z,32.00
2022-09-06T14:27:11.205Z,27.70
2022-09-06T14:29:40.317Z,26.45
2022-09-06T14:32:07.298Z,36.22
2022-09-06T14:34:34.052Z,28.42
2022-09-06T14:37:00.792Z,29.13
2022-09-06T14:39:27.741Z,31.08
2022-09-06T14:41:54.452Z,26.42
2022-09-06T14:44:21.629Z,34.75
2022-09-06T14:46:49.214Z,28.58
2022-09-06T14:49:16.200Z,28.88
2022-09-06T14:51:43.579Z,36.28
2022-09-06T14:54:12.449Z,26.60
2022-09-06T14:56:40.625Z,34.10
2022-09-06T14:59:09.359Z,29.45
2022-09-06T15:01:38.663Z,27.15
2022-09-06T15:04:07.125Z,34.47
2022-09-06T15:06:36.962Z,29.00
2022-09-06T15:09:05.417Z,27.50
2022-09-06T15:11:37.971Z,30.88
2022-09-06T15:14:08.095Z,29.55
2022-09-06T15:16:36.051Z,27.50
2022-09-06T15:19:02.962Z,21.00
2022-09-06T15:21:30.549Z,21.25
2022-09-06T15:23:57.530Z,22.73
2022-09-06T15:26:25.314Z,22.13
2022-09-06T15:28:52.323Z,24.67
2022-09-06T15:31:19.697Z,21.50
2022-09-06T15:33:48.920Z,20.05
2022-09-06T15:36:16.364Z,21.70
2022-09-06T15:38:45.181Z,20.40
2022-09-06T15:41:13.929Z,17.42
2022-09-06T15:43:45.154Z,17.55
2022-09-06T15:46:11.936Z,18.73
2022-09-06T15:48:43.923Z,17.63
2022-09-06T15:51:12.486Z,18.63
2022-09-06T15:53:39.326Z,17.35
2022-09-06T15:56:07.612Z,20.30
2022-09-06T15:58:34.401Z,19.90
2022-09-06T16:01:34.110Z,15.25
2022-09-06T16:04:05.803Z,15.00
2022-09-06T16:06:38.270Z,18.77
2022-09-06T16:09:08.805Z,18.25
2022-09-06T16:11:36.992Z,19.67
2022-09-06T16:14:10.418Z,15.45
2022-09-06T16:16:37.452Z,15.75
2022-09-06T16:19:04.254Z,18.67
2022-09-06T16:21:32.949Z,15.77
2022-09-06T16:24:02.171Z,17.70
2022-09-06T16:26:35.548Z,20.67
2022-09-06T16:29:03.206Z,18.60
2022-09-06T16:31:30.329Z,17.40
2022-09-06T16:33:58.035Z,18.50
2022-09-06T16:36:25.763Z,19.27
2022-09-06T16:38:52.590Z,18.10
2022-09-06T16:41:29.100Z,20.10
2022-09-06T16:43:56.047Z,18.60
2022-09-06T16:46:25.199Z,17.70
2022-09-06T16:48:56.430Z,17.23
2022-09-06T16:51:24.792Z,19.15
2022-09-06T16:53:52.263Z,16.42
2022-09-06T16:56:24.421Z,16.92
2022-09-06T16:58:55.168Z,16.00
2022-09-06T17:01:22.651Z,26.88
2022-09-06T17:03:49.807Z,17.77
2022-09-06T17:06:17.054Z,17.98
2022-09-06T17:08:43.942Z,19.00
2022-09-06T17:11:21.357Z,17.90
2022-09-06T17:13:49.950Z,16.95
2022-09-06T17:16:36.214Z,17.80
2022-09-06T17:19:03.617Z,23.23
2022-09-06T17:21:32.070Z,16.92
2022-09-06T17:24:03.151Z,20.38
2022-09-06T17:26:35.445Z,17.88
2022-09-06T17:29:04.207Z,20.65
2022-09-06T17:31:31.609Z,18.08
2022-09-06T17:33:59.811Z,18.60
2022-09-06T17:36:32.343Z,17.15
2022-09-06T17:39:10.717Z,18.40
2022-09-06T17:41:40.045Z,22.70
2022-09-06T17:44:08.490Z,29.13
2022-09-06T17:46:35.378Z,20.20
2022-09-06T17:49:02.307Z,18.67
2022-09-06T17:51:29.246Z,17.67
2022-09-06T17:53:56.007Z,19.88
2022-09-06T17:56:23.342Z,18.02
2022-09-06T17:59:01.559Z,16.75
2022-09-06T18:01:30.970Z,18.35
2022-09-06T18:03:58.467Z,19.52
2022-09-06T18:06:26.573Z,15.20
2022-09-06T18:08:55.303Z,20.63
2022-09-06T18:11:25.122Z,18.08
2022-09-06T18:14:06.783Z,16.67
2022-09-06T18:16:35.292Z,18.88
2022-09-06T18:19:05.390Z,21.20
2022-09-06T18:21:34.284Z,18.40
2022-09-06T18:24:01.090Z,16.23
2022-09-06T18:26:27.876Z,19.50
2022-09-06T18:28:54.849Z,17.50
2022-09-06T18:31:23.846Z,18.52
2022-09-06T18:33:52.390Z,19.30
2022-09-06T18:36:20.420Z,18.25
2022-09-06T18:38:48.964Z,20.70
2022-09-06T18:41:36.093Z,20.33
2022-09-06T18:44:05.719Z,18.90
2022-09-06T18:46:36.241Z,17.95
2022-09-06T18:49:03.084Z,20.20
2022-09-06T18:51:31.360Z,21.98
2022-09-06T18:53:59.461Z,19.27
2022-09-06T18:56:28.376Z,16.77
2022-09-06T18:58:58.361Z,22.65
2022-09-06T19:01:26.340Z,19.98
2022-09-06T19:03:53.136Z,20.98
2022-09-06T19:06:21.257Z,20.23
2022-09-06T19:08:49.111Z,15.93
2022-09-06T19:11:17.824Z,16.23
2022-09-06T19:13:45.930Z,28.33
2022-09-06T19:16:14.124Z,21.83
2022-09-06T19:18:41.099Z,22.35
2022-09-06T19:21:13.687Z,19.95
2022-09-06T19:23:45.523Z,23.77
2022-09-06T19:26:17.799Z,24.73
2022-09-06T19:28:52.739Z,22.30
2022-09-06T19:31:20.351Z,19.52
2022-09-06T19:33:48.633Z,26.20
2022-09-06T19:36:16.469Z,27.00
2022-09-06T19:41:30.797Z,29.15
2022-09-06T19:43:58.622Z,31.75
2022-09-06T19:46:25.796Z,24.65
2022-09-06T19:48:54.107Z,31.35
2022-09-06T19:51:21.563Z,27.40
2022-09-06T19:53:52.314Z,24.35
2022-09-06T19:56:40.898Z,30.08
2022-09-06T19:59:10.102Z,28.80
2022-09-06T20:01:38.568Z,23.73
2022-09-06T20:04:07.623Z,26.45
2022-09-06T20:06:35.363Z,27.80
2022-09-06T20:09:03.523Z,27.27
2022-09-06T20:11:32.029Z,26.02
2022-09-06T20:13:59.738Z,25.58
2022-09-06T20:16:27.205Z,25.50
2022-09-06T20:18:59.111Z,27.50
2022-09-06T20:21:27.503Z,23.40
2022-09-06T20:23:56.769Z,26.08
2022-09-06T20:26:25.418Z,27.70
2022-09-06T20:28:56.867Z,29.27
2022-09-06T20:31:27.219Z,32.63
2022-09-06T20:33:59.931Z,31.13
2022-09-06T20:36:27.883Z,34.88
2022-09-06T20:38:54.659Z,29.95
2022-09-06T20:41:25.265Z,29.15
2022-09-06T20:43:53.527Z,29.77
2022-09-06T20:46:22.404Z,32.10
2022-09-06T20:48:49.565Z,33.22
2022-09-06T20:51:21.593Z,34.40
2022-09-06T20:53:55.203Z,33.65
2022-09-06T20:56:24.323Z,30.75
2022-09-06T20:58:56.127Z,35.33
2022-09-06T21:01:25.121Z,33.97
2022-09-06T21:03:59.537Z,34.67
2022-09-06T21:06:28.777Z,30.53
2022-09-06T21:08:56.051Z,31.80
2022-09-06T21:11:22.981Z,29.75
2022-09-06T21:13:53.433Z,28.27
2022-09-06T21:16:24.598Z,29.13
2022-09-06T21:18:56.909Z,28.48
2022-09-06T21:21:25.466Z,35.42
2022-09-06T21:23:52.400Z,31.48
2022-09-06T21:26:19.254Z,34.50
2022-09-06T21:28:46.874Z,38.55
2022-09-06T21:31:22.432Z,38.97
2022-09-06T21:33:52.704Z,33.80
2022-09-06T21:36:24.595Z,29.92
2022-09-06T21:38:55.682Z,32.40
2022-09-06T21:41:22.981Z,34.38
2022-09-06T21:43:54.423Z,42.58
2022-09-06T21:46:22.572Z,31.23
2022-09-06T21:48:50.688Z,34.33
2022-09-06T21:51:20.130Z,33.63
2022-09-06T21:53:48.694Z,33.80
2022-09-06T21:56:16.075Z,36.65
2022-09-06T21:58:44.276Z,37.40
2022-09-06T22:01:11.092Z,34.67
2022-09-06T22:03:40.387Z,46.30
2022-09-06T22:06:17.850Z,46.70
2022-09-06T22:08:45.112Z,41.65
2022-09-06T22:11:14.260Z,42.08
2022-09-06T22:13:41.336Z,36.17
2022-09-06T22:16:08.767Z,42.95
2022-09-06T22:18:35.869Z,39.80
2022-09-06T22:21:07.960Z,51.78
2022-09-06T22:23:35.058Z,52.95
2022-09-06T22:26:09.207Z,37.53
2022-09-06T22:28:36.110Z,47.60
2022-09-06T22:31:02.953Z,48.97
2022-09-06T22:33:30.222Z,42.97
2022-09-06T22:35:57.506Z,48.70
2022-09-06T22:38:24.467Z,49.53
2022-09-06T22:40:51.232Z,52.75
2022-09-06T22:43:17.881Z,55.38
2022-09-06T22:45:49.817Z,53.75
2022-09-06T22:48:18.446Z,50.65
2022-09-06T22:50:45.692Z,54.45
2022-09-06T22:53:12.627Z,49.30
2022-09-06T22:55:39.427Z,60.20
2022-09-06T22:58:06.193Z,55.75
2022-09-06T23:00:36.109Z,56.38
2022-09-06T23:03:02.949Z,58.50
2022-09-06T23:05:31.577Z,58.60
2022-09-06T23:08:00.358Z,52.72
2022-09-06T23:10:27.766Z,60.85
2022-09-06T23:12:55.034Z,52.05
2022-09-06T23:15:21.725Z,56.40
2022-09-06T23:17:48.496Z,49.72
2022-09-06T23:20:15.306Z,58.85
2022-09-06T23:22:42.139Z,53.28
2022-09-06T23:25:09.185Z,57.85
2022-09-06T23:27:36.037Z,55.03
2022-09-06T23:30:03.723Z,58.70
2022-09-06T23:32:32.081Z,52.17
2022-09-06T23:34:58.871Z,52.95
2022-09-06T23:37:25.552Z,47.22
2022-09-06T23:39:52.698Z,57.38
2022-09-06T23:42:19.733Z,53.90
2022-09-06T23:44:46.522Z,53.47
2022-09-06T23:47:13.353Z,54.58
2022-09-06T23:49:40.025Z,55.05
2022-09-06T23:52:06.858Z,49.95
2022-09-06T23:54:33.523Z,50.75
2022-09-06T23:57:00.241Z,46.78
2022-09-06T23:59:26.959Z,52.75
